createdAt,value
2019-03-26T00:01:08.272Z,6.30
2019-03-26T00:03:34.448Z,6.35
2019-03-26T00:06:00.565Z,6.83
2019-03-26T00:08:26.758Z,6.05
2019-03-26T00:10:52.927Z,6.33
2019-03-26T00:13:19.007Z,7.65
2019-03-26T00:15:45.206Z,8.15
2019-03-26T00:18:11.331Z,7.10
2019-03-26T00:20:37.511Z,6.25
2019-03-26T00:23:03.765Z,8.53
2019-03-26T00:25:29.864Z,7.08
2019-03-26T00:27:55.919Z,6.92
2019-03-26T00:30:22.091Z,5.42
2019-03-26T00:32:48.178Z,5.37
2019-03-26T00:35:14.939Z,5.95
2019-03-26T00:37:41.159Z,6.00
2019-03-26T00:40:07.599Z,6.35
2019-03-26T00:42:33.777Z,6.72
2019-03-26T00:44:59.885Z,5.92
2019-03-26T00:47:25.961Z,6.15
2019-03-26T00:49:52.094Z,7.70
2019-03-26T00:52:18.265Z,6.40
2019-03-26T00:54:44.341Z,5.60
2019-03-26T00:57:10.529Z,6.92
2019-03-26T00:59:36.662Z,7.28
2019-03-26T01:02:02.907Z,5.92
2019-03-26T01:04:33.117Z,7.33
2019-03-26T01:06:56.983Z,10.85
2019-03-26T01:09:23.064Z,5.80
2019-03-26T01:11:49.210Z,7.75
2019-03-26T01:14:15.322Z,6.92
2019-03-26T01:16:41.384Z,6.30
2019-03-26T01:19:07.626Z,9.68
2019-03-26T01:21:33.743Z,6.65
2019-03-26T01:23:59.864Z,6.17
2019-03-26T01:26:25.967Z,5.80
2019-03-26T01:28:52.073Z,7.30
2019-03-26T01:31:18.168Z,5.40
2019-03-26T01:33:44.286Z,5.25
2019-03-26T01:36:10.424Z,8.48
2019-03-26T01:38:36.501Z,5.50
2019-03-26T01:41:02.675Z,7.60
2019-03-26T01:43:28.861Z,7.75
2019-03-26T01:45:55.035Z,7.00
2019-03-26T01:48:21.095Z,7.53
2019-03-26T01:50:47.376Z,7.47
2019-03-26T01:53:13.488Z,5.37
2019-03-26T01:55:39.644Z,6.30
2019-03-26T01:58:05.745Z,8.75
2019-03-26T02:00:32.169Z,7.80
2019-03-26T02:02:58.232Z,9.20
2019-03-26T02:05:24.319Z,6.60
2019-03-26T02:07:50.419Z,8.80
2019-03-26T02:10:16.508Z,9.70
2019-03-26T02:12:42.787Z,9.80
2019-03-26T02:15:12.695Z,10.55
2019-03-26T02:17:38.840Z,7.10
2019-03-26T02:20:05.108Z,8.83
2019-03-26T02:22:31.225Z,10.38
2019-03-26T02:24:57.315Z,9.10
2019-03-26T02:27:23.389Z,9.85
2019-03-26T02:29:49.591Z,9.58
2019-03-26T02:32:15.768Z,8.10
2019-03-26T02:34:41.964Z,9.18
2019-03-26T02:37:08.246Z,8.78
2019-03-26T02:39:34.417Z,9.23
2019-03-26T02:42:00.490Z,6.42
2019-03-26T02:44:26.639Z,7.95
2019-03-26T02:46:52.746Z,7.70
2019-03-26T02:49:21.645Z,8.30
2019-03-26T02:51:47.825Z,8.70
2019-03-26T02:54:13.936Z,5.90
2019-03-26T02:56:40.128Z,7.72
2019-03-26T02:59:06.280Z,7.08
2019-03-26T03:01:32.537Z,10.25
2019-03-26T03:03:58.633Z,7.60
2019-03-26T03:06:24.721Z,6.55
2019-03-26T03:08:50.838Z,7.22
2019-03-26T03:11:17.025Z,8.43
2019-03-26T03:13:43.093Z,6.95
2019-03-26T03:16:09.304Z,11.85
2019-03-26T03:18:35.462Z,8.18
2019-03-26T03:21:01.638Z,8.95
2019-03-26T03:23:27.710Z,7.42
2019-03-26T03:25:53.805Z,10.45
2019-03-26T03:28:19.906Z,10.60
2019-03-26T03:30:46.021Z,12.33
2019-03-26T03:33:12.205Z,11.22
2019-03-26T03:35:51.361Z,10.48
2019-03-26T03:38:06.362Z,8.90
2019-03-26T03:40:32.456Z,8.95
2019-03-26T03:42:58.661Z,11.95
2019-03-26T03:45:26.772Z,13.05
2019-03-26T03:47:53.230Z,11.75
2019-03-26T03:50:19.852Z,11.33
2019-03-26T03:52:46.615Z,11.00
2019-03-26T03:55:12.784Z,12.37
2019-03-26T03:57:39.402Z,10.80
2019-03-26T04:00:09.291Z,16.02
2019-03-26T04:02:35.394Z,10.90
2019-03-26T04:05:01.583Z,9.48
2019-03-26T04:07:27.647Z,10.30
2019-03-26T04:09:53.837Z,12.80
2019-03-26T04:12:20.017Z,15.80
2019-03-26T04:14:46.178Z,12.80
2019-03-26T04:17:12.277Z,11.10
2019-03-26T04:19:38.388Z,13.43
2019-03-26T04:22:04.576Z,13.08
2019-03-26T04:24:30.677Z,13.53
2019-03-26T04:26:56.772Z,12.75
2019-03-26T04:29:22.939Z,13.15
2019-03-26T04:31:49.027Z,11.75
2019-03-26T04:34:15.238Z,12.53
2019-03-26T04:36:41.321Z,15.23
2019-03-26T04:39:07.436Z,11.60
2019-03-26T04:41:33.804Z,13.10
2019-03-26T04:43:59.930Z,11.65
2019-03-26T04:46:26.109Z,13.28
2019-03-26T04:48:52.313Z,14.23
2019-03-26T04:51:18.464Z,15.38
2019-03-26T04:53:44.581Z,14.80
2019-03-26T04:56:10.673Z,14.07
2019-03-26T04:58:36.864Z,14.55
2019-03-26T05:01:03.039Z,15.53
2019-03-26T05:03:29.213Z,16.97
2019-03-26T05:05:55.313Z,15.88
2019-03-26T05:08:21.417Z,16.70
2019-03-26T05:10:49.212Z,15.53
2019-03-26T05:13:16.539Z,14.85
2019-03-26T05:15:42.671Z,14.23
2019-03-26T05:18:08.749Z,15.08
2019-03-26T05:20:34.828Z,15.48
2019-03-26T05:23:00.914Z,18.27
2019-03-26T05:25:27.098Z,15.72
2019-03-26T05:27:53.195Z,14.85
2019-03-26T05:30:19.273Z,17.60
2019-03-26T05:32:45.351Z,12.60
2019-03-26T05:35:11.944Z,14.58
2019-03-26T05:37:38.107Z,15.35
2019-03-26T05:40:06.799Z,15.20
2019-03-26T05:42:33.002Z,13.93
2019-03-26T05:44:59.142Z,11.85
2019-03-26T05:47:25.224Z,13.40
2019-03-26T05:49:51.371Z,12.50
2019-03-26T05:52:17.495Z,15.48
2019-03-26T05:54:43.566Z,16.10
2019-03-26T05:57:09.661Z,11.83
2019-03-26T05:59:35.753Z,16.35
2019-03-26T06:02:13.378Z,14.68
2019-03-26T06:04:29.803Z,19.17
2019-03-26T06:07:04.631Z,16.85
2019-03-26T06:09:23.891Z,15.35
2019-03-26T06:11:50.062Z,13.60
2019-03-26T06:14:16.225Z,13.60
2019-03-26T06:16:42.431Z,15.88
2019-03-26T06:19:08.506Z,15.85
2019-03-26T06:21:34.574Z,19.25
2019-03-26T06:24:00.947Z,16.67
2019-03-26T06:26:27.126Z,16.02
2019-03-26T06:28:53.313Z,12.73
2019-03-26T06:31:19.435Z,15.55
2019-03-26T06:33:45.523Z,16.25
2019-03-26T06:36:11.707Z,16.37
2019-03-26T06:38:37.793Z,14.10
2019-03-26T06:41:04.065Z,16.20
2019-03-26T06:43:30.173Z,14.00
2019-03-26T06:45:56.258Z,15.58
2019-03-26T06:48:22.340Z,10.58
2019-03-26T06:50:48.424Z,15.35
2019-03-26T06:53:14.520Z,19.15
2019-03-26T06:55:40.588Z,14.33
2019-03-26T06:58:06.711Z,15.10
2019-03-26T07:00:33.096Z,16.45
2019-03-26T07:03:00.666Z,13.83
2019-03-26T07:05:26.804Z,12.07
2019-03-26T07:07:52.975Z,18.23
2019-03-26T07:10:22.867Z,16.00
2019-03-26T07:12:49.051Z,11.90
2019-03-26T07:15:16.012Z,17.75
2019-03-26T07:17:42.129Z,15.70
2019-03-26T07:20:08.851Z,13.60
2019-03-26T07:22:35.169Z,13.60
2019-03-26T07:25:01.333Z,14.00
2019-03-26T07:27:27.422Z,15.35
2019-03-26T07:29:53.689Z,16.07
2019-03-26T07:32:19.831Z,15.72
2019-03-26T07:34:45.888Z,15.38
2019-03-26T07:37:12.119Z,24.00
2019-03-26T07:39:39.158Z,15.25
2019-03-26T07:42:05.464Z,15.78
2019-03-26T07:44:31.683Z,14.33
2019-03-26T07:46:57.887Z,15.10
2019-03-26T07:49:24.062Z,14.23
2019-03-26T07:51:50.217Z,13.08
2019-03-26T07:54:16.328Z,15.65
2019-03-26T07:56:42.502Z,16.07
2019-03-26T07:59:08.576Z,21.52
2019-03-26T08:01:34.784Z,15.75
2019-03-26T08:04:00.868Z,14.47
2019-03-26T08:06:26.965Z,18.73
2019-03-26T08:08:53.037Z,13.20
2019-03-26T08:11:19.128Z,15.10
2019-03-26T08:13:45.301Z,12.07
2019-03-26T08:16:11.379Z,19.05
2019-03-26T08:18:37.536Z,15.68
2019-03-26T08:21:03.659Z,18.42
2019-03-26T08:23:29.719Z,23.07
2019-03-26T08:25:55.937Z,13.88
2019-03-26T08:28:22.148Z,16.82
2019-03-26T08:30:50.144Z,26.33
2019-03-26T08:33:16.259Z,20.00
2019-03-26T08:35:42.533Z,19.17
2019-03-26T08:38:12.982Z,33.42
2019-03-26T08:40:36.726Z,23.25
2019-03-26T08:43:03.016Z,26.35
2019-03-26T08:45:29.220Z,26.90
2019-03-26T08:47:55.341Z,17.50
2019-03-26T08:50:21.488Z,26.93
2019-03-26T08:52:47.593Z,16.15
2019-03-26T08:55:13.808Z,16.85
2019-03-26T08:57:39.952Z,36.33
2019-03-26T09:00:08.560Z,21.02
2019-03-26T09:02:34.635Z,27.22
2019-03-26T09:05:00.716Z,15.18
2019-03-26T09:07:26.813Z,22.90
2019-03-26T09:09:53.200Z,14.83
2019-03-26T09:12:19.272Z,18.57
2019-03-26T09:14:45.380Z,21.17
2019-03-26T09:17:11.467Z,23.02
2019-03-26T09:19:37.533Z,17.87
2019-03-26T09:22:03.611Z,16.15
2019-03-26T09:24:29.685Z,19.95
2019-03-26T09:26:55.772Z,10.50
2019-03-26T09:29:21.831Z,13.95
2019-03-26T09:31:47.925Z,12.98
2019-03-26T09:34:14.019Z,15.72
2019-03-26T09:36:40.240Z,14.93
2019-03-26T09:39:07.097Z,12.47
2019-03-26T09:41:33.252Z,14.35
2019-03-26T09:43:59.328Z,16.07
2019-03-26T09:46:25.427Z,12.80
2019-03-26T09:48:51.722Z,14.20
2019-03-26T09:51:17.890Z,12.85
2019-03-26T09:53:43.963Z,13.93
2019-03-26T09:56:10.061Z,12.20
2019-03-26T09:58:36.303Z,11.10
2019-03-26T10:01:02.487Z,12.03
2019-03-26T10:03:28.680Z,19.17
2019-03-26T10:05:54.837Z,12.33
2019-03-26T10:08:21.008Z,14.05
2019-03-26T10:10:47.076Z,12.55
2019-03-26T10:13:13.195Z,17.30
2019-03-26T10:15:39.453Z,11.48
2019-03-26T10:18:05.548Z,11.33
2019-03-26T10:20:31.666Z,10.58
2019-03-26T10:22:57.847Z,10.55
2019-03-26T10:25:24.044Z,12.25
2019-03-26T10:27:50.126Z,12.73
2019-03-26T10:30:20.041Z,10.03
2019-03-26T10:32:46.375Z,10.88
2019-03-26T10:35:12.662Z,8.38
2019-03-26T10:37:38.745Z,11.28
2019-03-26T10:40:07.423Z,10.40
2019-03-26T10:42:33.612Z,11.50
2019-03-26T10:44:59.700Z,11.00
2019-03-26T10:47:25.775Z,9.70
2019-03-26T10:49:51.856Z,11.00
2019-03-26T10:52:17.960Z,10.25
2019-03-26T10:54:44.053Z,7.83
2019-03-26T10:57:10.146Z,16.05
2019-03-26T10:59:36.333Z,7.83
2019-03-26T11:02:02.485Z,8.18
2019-03-26T11:04:28.600Z,8.68
2019-03-26T11:06:54.723Z,8.73
2019-03-26T11:09:26.875Z,10.05
2019-03-26T11:11:48.900Z,7.78
2019-03-26T11:14:14.992Z,7.28
2019-03-26T11:16:41.092Z,20.95
2019-03-26T11:19:07.179Z,12.55
2019-03-26T11:21:33.276Z,9.28
2019-03-26T11:23:59.461Z,14.70
2019-03-26T11:26:25.623Z,7.50
2019-03-26T11:28:51.740Z,7.28
2019-03-26T11:31:19.047Z,6.28
2019-03-26T11:33:45.755Z,6.70
2019-03-26T11:36:12.776Z,12.33
2019-03-26T11:38:38.975Z,6.80
2019-03-26T11:41:06.185Z,8.18
2019-03-26T11:43:33.028Z,7.33
2019-03-26T11:45:59.123Z,8.03
2019-03-26T11:48:25.985Z,6.55
2019-03-26T11:50:52.160Z,5.12
2019-03-26T11:53:18.219Z,11.33
2019-03-26T11:55:44.304Z,15.45
2019-03-26T11:58:10.545Z,31.95
2019-03-26T12:00:37.941Z,6.80
2019-03-26T12:03:04.421Z,6.60
2019-03-26T12:05:30.613Z,7.72
2019-03-26T12:07:56.740Z,9.38
2019-03-26T12:10:22.916Z,12.23
2019-03-26T12:12:49.111Z,6.55
2019-03-26T12:15:15.494Z,6.78
2019-03-26T12:17:41.568Z,6.33
2019-03-26T12:20:08.097Z,7.40
2019-03-26T12:22:34.289Z,5.90
2019-03-26T12:25:00.492Z,6.22
2019-03-26T12:27:26.602Z,14.18
2019-03-26T12:29:52.669Z,6.40
2019-03-26T12:32:18.771Z,5.70
2019-03-26T12:34:45.069Z,4.90
2019-03-26T12:37:11.151Z,4.33
2019-03-26T12:39:37.205Z,5.25
2019-03-26T12:42:03.301Z,3.92
2019-03-26T12:44:29.386Z,5.90
2019-03-26T12:46:58.242Z,6.17
2019-03-26T12:49:23.595Z,4.62
2019-03-26T12:51:49.896Z,5.75
2019-03-26T12:54:16.017Z,4.80
2019-03-26T12:56:42.224Z,4.53
2019-03-26T12:59:08.448Z,4.55
2019-03-26T13:01:34.540Z,7.60
2019-03-26T13:04:12.095Z,4.75
2019-03-26T13:06:28.608Z,5.90
2019-03-26T13:08:54.688Z,5.33
2019-03-26T13:11:20.915Z,3.80
2019-03-26T13:13:47.026Z,5.08
2019-03-26T13:16:13.121Z,4.58
2019-03-26T13:18:39.207Z,5.33
2019-03-26T13:21:05.278Z,4.85
2019-03-26T13:23:31.389Z,5.30
2019-03-26T13:25:57.491Z,5.15
2019-03-26T13:28:23.602Z,4.22
2019-03-26T13:30:49.647Z,5.45
2019-03-26T13:33:15.751Z,5.78
2019-03-26T13:35:41.993Z,5.42
2019-03-26T13:38:08.088Z,5.37
2019-03-26T13:40:34.165Z,4.28
2019-03-26T13:43:01.532Z,4.47
2019-03-26T13:45:27.789Z,5.50
2019-03-26T13:47:53.877Z,6.17
2019-03-26T13:50:20.102Z,5.45
2019-03-26T13:52:46.392Z,5.75
2019-03-26T13:55:12.853Z,5.03
2019-03-26T13:57:39.075Z,5.67
2019-03-26T14:00:07.051Z,5.60
2019-03-26T14:02:33.136Z,5.50
2019-03-26T14:04:59.316Z,5.95
2019-03-26T14:07:25.707Z,5.15
2019-03-26T14:09:51.809Z,5.47
2019-03-26T14:12:18.028Z,6.67
2019-03-26T14:14:44.129Z,4.87
2019-03-26T14:17:10.200Z,5.22
2019-03-26T14:19:36.386Z,4.90
2019-03-26T14:22:02.721Z,4.60
2019-03-26T14:24:28.792Z,5.67
2019-03-26T14:26:54.892Z,5.35
2019-03-26T14:29:21.065Z,4.95
2019-03-26T14:31:47.352Z,6.12
2019-03-26T14:34:13.420Z,5.62
2019-03-26T14:36:39.522Z,5.03
2019-03-26T14:39:08.047Z,4.58
2019-03-26T14:41:34.134Z,5.17
2019-03-26T14:44:00.240Z,5.22
2019-03-26T14:46:26.321Z,7.10
2019-03-26T14:48:52.505Z,6.10
2019-03-26T14:51:18.627Z,5.75
2019-03-26T14:53:44.757Z,7.62
2019-03-26T14:56:10.900Z,7.17
2019-03-26T14:58:37.015Z,6.87
2019-03-26T15:01:03.221Z,5.37
2019-03-26T15:03:29.321Z,5.87
2019-03-26T15:05:55.481Z,5.10
2019-03-26T15:08:21.577Z,5.55
2019-03-26T15:10:47.714Z,5.20
2019-03-26T15:13:13.872Z,4.50
2019-03-26T15:15:39.955Z,5.37
2019-03-26T15:18:06.030Z,4.83
2019-03-26T15:20:32.107Z,5.78
2019-03-26T15:22:58.333Z,4.17
2019-03-26T15:25:24.469Z,6.05
2019-03-26T15:27:50.549Z,4.95
2019-03-26T15:30:16.870Z,5.78
2019-03-26T15:32:43.161Z,7.90
2019-03-26T15:35:09.540Z,6.85
2019-03-26T15:37:35.748Z,6.90
2019-03-26T15:40:04.118Z,6.97
2019-03-26T15:42:30.435Z,5.10
2019-03-26T15:44:56.552Z,5.72
2019-03-26T15:47:22.661Z,9.20
2019-03-26T15:49:48.840Z,6.22
2019-03-26T15:52:15.125Z,5.80
2019-03-26T15:54:41.214Z,5.50
2019-03-26T15:57:07.268Z,7.97
2019-03-26T15:59:33.368Z,5.83
2019-03-26T16:01:59.624Z,6.20
2019-03-26T16:04:25.817Z,5.87
2019-03-26T16:06:51.909Z,8.18
2019-03-26T16:09:17.989Z,5.83
2019-03-26T16:11:44.100Z,6.15
2019-03-26T16:14:10.194Z,6.08
2019-03-26T16:16:36.343Z,8.83
2019-03-26T16:19:02.553Z,8.30
2019-03-26T16:21:28.730Z,8.50
2019-03-26T16:23:54.902Z,7.50
2019-03-26T16:26:21.052Z,10.28
2019-03-26T16:28:47.127Z,8.20
2019-03-26T16:31:13.217Z,5.72
2019-03-26T16:33:39.338Z,6.97
2019-03-26T16:36:05.643Z,6.60
2019-03-26T16:38:31.729Z,7.25
2019-03-26T16:41:00.387Z,7.55
2019-03-26T16:43:25.832Z,7.37
2019-03-26T16:45:51.972Z,10.23
2019-03-26T16:48:18.059Z,6.67
2019-03-26T16:50:44.151Z,6.55
2019-03-26T16:53:10.255Z,5.55
2019-03-26T16:55:36.311Z,7.30
2019-03-26T16:58:02.483Z,7.40
2019-03-26T17:00:29.896Z,6.12
2019-03-26T17:02:56.099Z,5.60
2019-03-26T17:05:24.784Z,6.20
2019-03-26T17:07:50.895Z,6.12
2019-03-26T17:10:16.978Z,6.03
2019-03-26T17:12:43.100Z,9.65
2019-03-26T17:15:09.376Z,5.62
2019-03-26T17:17:35.465Z,9.25
2019-03-26T17:20:01.762Z,8.45
2019-03-26T17:22:27.883Z,6.75
2019-03-26T17:24:54.068Z,7.03
2019-03-26T17:27:20.160Z,6.10
2019-03-26T17:29:46.249Z,6.90
2019-03-26T17:32:12.615Z,7.40
2019-03-26T17:34:38.708Z,8.33
2019-03-26T17:37:04.970Z,6.20
2019-03-26T17:39:31.744Z,7.50
2019-03-26T17:41:58.032Z,5.20
2019-03-26T17:44:37.127Z,5.45
2019-03-26T17:47:04.358Z,4.50
2019-03-26T17:49:30.715Z,3.77
2019-03-26T17:51:56.804Z,2.87
2019-03-26T17:54:22.888Z,3.05
2019-03-26T17:56:49.531Z,3.52
2019-03-26T17:59:15.676Z,3.30
2019-03-26T18:01:41.757Z,2.77
2019-03-26T18:04:08.023Z,3.60
2019-03-26T18:06:34.109Z,3.15
2019-03-26T18:09:20.062Z,4.20
2019-03-26T18:11:46.164Z,6.55
2019-03-26T18:14:12.430Z,5.87
2019-03-26T18:16:38.607Z,3.62
2019-03-26T18:19:04.743Z,4.90
2019-03-26T18:21:30.920Z,3.20
2019-03-26T18:23:56.984Z,4.30
2019-03-26T18:26:23.129Z,3.77
2019-03-26T18:28:49.195Z,3.40
2019-03-26T18:31:15.384Z,4.25
2019-03-26T18:33:41.445Z,4.12
2019-03-26T18:36:07.545Z,3.25
2019-03-26T18:38:33.627Z,4.50
2019-03-26T18:40:59.700Z,3.80
2019-03-26T18:43:28.059Z,3.40
2019-03-26T18:45:53.812Z,4.00
2019-03-26T18:48:19.898Z,4.85
2019-03-26T18:50:46.068Z,4.70
2019-03-26T18:53:12.339Z,4.70
2019-03-26T18:55:38.425Z,5.15
2019-03-26T18:58:04.519Z,4.10
2019-03-26T19:00:34.904Z,4.40
2019-03-26T19:03:01.264Z,4.58
2019-03-26T19:05:27.415Z,5.47
2019-03-26T19:07:53.596Z,4.12
2019-03-26T19:10:25.807Z,4.12
2019-03-26T19:12:57.013Z,6.90
2019-03-26T19:15:20.432Z,4.10
2019-03-26T19:17:46.515Z,3.50
2019-03-26T19:20:12.593Z,4.80
2019-03-26T19:22:38.652Z,4.45
2019-03-26T19:25:05.072Z,6.40
2019-03-26T19:27:31.190Z,4.35
2019-03-26T19:29:57.328Z,6.40
2019-03-26T19:32:23.436Z,5.30
2019-03-26T19:34:49.544Z,4.65
2019-03-26T19:37:15.613Z,6.78
2019-03-26T19:39:41.719Z,4.60
2019-03-26T19:42:07.783Z,4.95
2019-03-26T19:44:33.844Z,4.90
2019-03-26T19:46:59.941Z,5.42
2019-03-26T19:49:26.243Z,5.55
2019-03-26T19:51:52.392Z,4.67
2019-03-26T19:54:18.466Z,4.35
2019-03-26T19:56:44.548Z,4.95
2019-03-26T19:59:10.618Z,6.50
2019-03-26T20:01:36.717Z,6.08
2019-03-26T20:04:02.814Z,5.53
2019-03-26T20:06:29.012Z,6.35
2019-03-26T20:08:55.100Z,7.05
2019-03-26T20:11:21.295Z,4.83
2019-03-26T20:13:47.712Z,6.60
2019-03-26T20:16:13.797Z,6.65
2019-03-26T20:18:39.873Z,6.92
2019-03-26T20:21:06.048Z,5.85
2019-03-26T20:23:32.130Z,6.65
2019-03-26T20:25:58.228Z,9.48
2019-03-26T20:28:26.656Z,5.08
2019-03-26T20:30:52.270Z,6.58
2019-03-26T20:33:18.336Z,8.00
2019-03-26T20:35:44.415Z,6.25
2019-03-26T20:38:10.494Z,8.98
2019-03-26T20:40:36.565Z,10.10
2019-03-26T20:43:02.639Z,8.85
2019-03-26T20:45:28.833Z,7.00
2019-03-26T20:47:55.022Z,7.85
2019-03-26T20:50:22.001Z,9.35
2019-03-26T20:52:48.110Z,8.28
2019-03-26T20:55:16.776Z,8.80
2019-03-26T20:57:42.864Z,10.05
2019-03-26T21:00:11.645Z,8.85
2019-03-26T21:02:37.827Z,8.10
2019-03-26T21:05:06.309Z,11.68
2019-03-26T21:07:32.500Z,10.03
2019-03-26T21:09:58.694Z,8.50
2019-03-26T21:12:24.823Z,10.88
2019-03-26T21:14:50.904Z,12.13
2019-03-26T21:17:16.976Z,9.25
2019-03-26T21:19:43.065Z,7.42
2019-03-26T21:22:09.140Z,10.48
2019-03-26T21:24:35.320Z,7.85
2019-03-26T21:27:01.419Z,11.50
2019-03-26T21:29:27.603Z,7.30
2019-03-26T21:31:53.788Z,10.20
2019-03-26T21:34:29.926Z,10.23
2019-03-26T21:36:47.812Z,9.90
2019-03-26T21:39:13.891Z,9.53
2019-03-26T21:41:39.952Z,8.93
2019-03-26T21:44:06.049Z,7.10
2019-03-26T21:46:32.139Z,10.40
2019-03-26T21:48:58.210Z,10.25
2019-03-26T21:51:24.390Z,8.65
2019-03-26T21:53:50.452Z,7.45
2019-03-26T21:56:16.544Z,9.13
2019-03-26T21:58:42.604Z,7.22
2019-03-26T22:01:08.687Z,8.05
2019-03-26T22:03:34.868Z,7.55
2019-03-26T22:06:00.916Z,8.00
2019-03-26T22:08:27.103Z,12.65
2019-03-26T22:10:53.202Z,9.53
2019-03-26T22:13:19.324Z,7.20
2019-03-26T22:15:45.437Z,10.40
2019-03-26T22:18:11.596Z,9.73
2019-03-26T22:20:37.704Z,10.65
2019-03-26T22:23:03.995Z,9.38
2019-03-26T22:25:30.350Z,16.60
2019-03-26T22:27:56.607Z,9.58
2019-03-26T22:30:22.727Z,10.32
2019-03-26T22:32:48.785Z,11.70
2019-03-26T22:35:14.873Z,12.55
2019-03-26T22:37:40.958Z,9.70
2019-03-26T22:40:07.710Z,11.55
2019-03-26T22:42:33.823Z,7.90
2019-03-26T22:44:59.897Z,9.08
2019-03-26T22:47:25.999Z,9.65
2019-03-26T22:49:52.119Z,9.70
2019-03-26T22:52:18.171Z,15.45
2019-03-26T22:54:44.288Z,11.73
2019-03-26T22:57:10.345Z,12.07
2019-03-26T22:59:36.507Z,9.75
2019-03-26T23:02:02.793Z,10.00
2019-03-26T23:04:28.903Z,10.85
2019-03-26T23:06:55.137Z,9.65
2019-03-26T23:09:21.408Z,10.78
2019-03-26T23:11:47.471Z,12.30
2019-03-26T23:14:13.569Z,11.97
2019-03-26T23:16:39.664Z,12.40
2019-03-26T23:19:05.911Z,10.38
2019-03-26T23:21:31.997Z,13.00
2019-03-26T23:23:58.046Z,11.80
2019-03-26T23:26:24.127Z,16.40
2019-03-26T23:28:50.200Z,12.25
2019-03-26T23:31:16.364Z,10.53
2019-03-26T23:33:42.492Z,13.00
2019-03-26T23:36:08.685Z,10.75
2019-03-26T23:38:34.803Z,9.83
2019-03-26T23:41:00.947Z,10.05
2019-03-26T23:43:27.026Z,17.87
2019-03-26T23:45:53.106Z,13.62
2019-03-26T23:48:19.189Z,17.30
2019-03-26T23:50:45.256Z,14.38
2019-03-26T23:53:11.353Z,21.97
2019-03-26T23:55:37.407Z,17.07
2019-03-26T23:58:03.493Z,17.25
